createdAt,value
2022-08-26T00:00:53.767Z,93510.05
2022-08-26T00:06:01.501Z,93506.72
2022-08-26T00:11:11.018Z,93503.62
2022-08-26T00:16:18.840Z,93507.36
2022-08-26T00:21:28.135Z,93501.26
2022-08-26T00:26:35.905Z,93499.69
2022-08-26T00:31:45.054Z,93503.58
2022-08-26T00:36:52.387Z,93500.47
2022-08-26T00:42:00.965Z,93495.14
2022-08-26T00:47:13.655Z,93490.03
2022-08-26T00:52:24.175Z,93488.91
2022-08-26T00:57:35.016Z,93484.67
2022-08-26T01:02:46.795Z,93484.03
2022-08-26T01:07:56.135Z,93480.62
2022-08-26T01:13:07.434Z,93475.12
2022-08-26T01:18:15.597Z,93477.27
2022-08-26T01:23:23.867Z,93480.90
2022-08-26T01:28:35.189Z,93466.92
2022-08-26T01:34:07.925Z,93468.54
2022-08-26T01:39:16.305Z,93476.37
2022-08-26T01:44:28.486Z,93473.66
2022-08-26T01:49:40.632Z,93473.75
2022-08-26T01:54:50.452Z,93462.97
2022-08-26T02:00:00.725Z,93469.53
2022-08-26T02:05:11.865Z,93469.28
2022-08-26T02:10:19.795Z,93469.05
2022-08-26T02:15:28.485Z,93472.18
2022-08-26T02:20:36.237Z,93472.01
2022-08-26T02:25:56.237Z,93472.83
2022-08-26T02:31:04.196Z,93471.97
2022-08-26T02:36:13.360Z,93474.30
2022-08-26T02:41:20.766Z,93468.63
2022-08-26T02:46:30.624Z,93467.28
2022-08-26T02:51:39.394Z,93460.34
2022-08-26T02:56:47.456Z,93469.48
2022-08-26T03:01:56.015Z,93451.66
2022-08-26T03:07:03.617Z,93450.78
2022-08-26T03:12:10.670Z,93451.17
2022-08-26T03:17:17.825Z,93453.70
2022-08-26T03:22:24.925Z,93458.35
2022-08-26T03:27:32.833Z,93457.58
2022-08-26T03:32:39.806Z,93466.23
2022-08-26T03:37:48.637Z,93471.57
2022-08-26T03:42:56.545Z,93468.19
2022-08-26T03:48:03.815Z,93460.14
2022-08-26T03:53:13.058Z,93455.59
2022-08-26T03:58:19.496Z,93455.03
2022-08-26T04:03:45.525Z,93457.22
2022-08-26T04:08:52.555Z,93457.19
2022-08-26T04:14:01.205Z,93461.07
2022-08-26T04:19:08.965Z,93453.98
2022-08-26T04:24:17.832Z,93455.67
2022-08-26T04:29:28.115Z,93453.14
2022-08-26T04:34:35.145Z,93445.09
2022-08-26T04:39:42.145Z,93451.01
2022-08-26T04:44:49.116Z,93452.93
2022-08-26T04:49:58.189Z,93450.09
2022-08-26T04:55:06.586Z,93444.48
2022-08-26T05:00:14.941Z,93442.91
2022-08-26T05:05:22.254Z,93440.66
2022-08-26T05:10:29.415Z,93442.93
2022-08-26T05:15:38.306Z,93439.45
2022-08-26T05:20:49.780Z,93449.49
2022-08-26T05:25:59.360Z,93444.08
2022-08-26T05:31:19.019Z,93449.42
2022-08-26T05:36:28.916Z,93442.40
2022-08-26T05:41:39.298Z,93442.31
2022-08-26T05:46:46.382Z,93434.06
2022-08-26T05:51:53.315Z,93432.31
2022-08-26T05:57:00.114Z,93432.91
2022-08-26T06:02:07.930Z,93429.98
2022-08-26T06:07:16.715Z,93435.95
2022-08-26T06:12:23.766Z,93428.92
2022-08-26T06:17:30.774Z,93437.87
2022-08-26T06:22:57.848Z,93436.09
2022-08-26T06:28:06.435Z,93434.56
2022-08-26T06:33:13.795Z,93435.35
2022-08-26T06:38:21.236Z,93437.28
2022-08-26T06:43:30.560Z,93432.80
2022-08-26T06:48:38.125Z,93441.31
2022-08-26T06:54:11.045Z,93434.28
2022-08-26T06:59:22.904Z,93430.02
2022-08-26T07:04:34.755Z,93434.29
2022-08-26T07:09:43.855Z,93431.05
2022-08-26T07:14:50.715Z,93429.51
2022-08-26T07:19:57.535Z,93428.19
2022-08-26T07:25:08.576Z,93419.77
2022-08-26T07:30:16.467Z,93426.13
2022-08-26T07:35:23.665Z,93417.13
2022-08-26T07:40:31.330Z,93423.28
2022-08-26T07:45:38.632Z,93424.19
2022-08-26T07:50:50.181Z,93421.93
2022-08-26T07:55:54.777Z,93420.84
2022-08-26T08:01:02.956Z,93422.22
2022-08-26T08:11:26.520Z,93417.75
2022-08-26T08:16:46.141Z,93416.88
2022-08-26T08:21:47.486Z,93417.73
2022-08-26T08:26:54.568Z,93406.45
2022-08-26T08:32:04.042Z,93408.87
2022-08-26T08:37:13.346Z,93409.05
2022-08-26T08:42:40.816Z,93405.30
2022-08-26T08:47:55.036Z,93402.78
2022-08-26T08:53:30.589Z,93408.87
2022-08-26T08:58:56.829Z,93409.32
2022-08-26T09:04:43.800Z,93403.51
2022-08-26T09:09:57.620Z,93403.20
2022-08-26T09:15:15.215Z,93413.28
2022-08-26T09:20:58.109Z,93410.70
2022-08-26T09:26:21.471Z,93410.27
2022-08-26T09:31:36.222Z,93397.87
2022-08-26T09:36:48.997Z,93394.39
2022-08-26T09:42:17.476Z,93396.81
2022-08-26T09:47:34.349Z,93389.25
2022-08-26T09:52:42.795Z,93400.00
2022-08-26T09:58:03.618Z,93399.51
2022-08-26T10:03:11.262Z,93391.34
2022-08-26T10:08:31.904Z,93394.14
2022-08-26T10:13:43.175Z,93389.69
2022-08-26T10:19:00.162Z,93387.33
2022-08-26T10:24:11.294Z,93376.09
2022-08-26T10:29:25.295Z,93373.56
2022-08-26T10:34:34.295Z,93373.39
2022-08-26T10:40:09.688Z,93372.27
2022-08-26T10:45:25.098Z,93364.83
2022-08-26T10:50:44.405Z,93359.41
2022-08-26T10:56:01.285Z,93354.87
2022-08-26T11:01:45.106Z,93353.82
2022-08-26T11:07:32.047Z,93353.31
2022-08-26T11:12:45.315Z,93349.44
2022-08-26T11:18:06.322Z,93348.63
2022-08-26T11:23:28.464Z,93343.75
2022-08-26T11:28:40.615Z,93339.45
2022-08-26T11:33:59.670Z,93330.08
2022-08-26T11:39:29.597Z,93328.55
2022-08-26T11:44:49.505Z,93334.53
2022-08-26T11:50:11.417Z,93317.33
2022-08-26T11:55:19.141Z,93324.14
2022-08-26T12:00:33.844Z,93317.81
2022-08-26T12:05:46.925Z,93323.09
2022-08-26T12:11:10.427Z,93317.44
2022-08-26T12:16:26.633Z,93312.58
2022-08-26T12:21:34.913Z,93309.84
2022-08-26T12:26:42.345Z,93302.23
2022-08-26T12:31:50.166Z,93302.14
2022-08-26T12:42:17.518Z,93296.75
2022-08-26T12:47:44.934Z,93297.14
2022-08-26T12:53:13.986Z,93287.87
2022-08-26T12:58:34.397Z,93283.98
2022-08-26T13:03:47.312Z,93272.24
2022-08-26T13:08:58.299Z,93277.28
2022-08-26T13:14:11.228Z,93266.80
2022-08-26T13:19:22.270Z,93261.23
2022-08-26T13:24:36.733Z,93263.96
2022-08-26T13:29:49.334Z,93253.25
2022-08-26T13:34:58.248Z,93247.87
2022-08-26T13:40:12.478Z,93243.11
2022-08-26T13:45:19.753Z,93233.28
2022-08-26T13:50:27.068Z,93229.38
2022-08-26T13:55:33.866Z,93232.66
2022-08-26T14:00:42.464Z,93221.61
2022-08-26T14:05:50.086Z,93222.33
2022-08-26T14:10:59.120Z,93217.37
2022-08-26T14:16:13.389Z,93214.98
2022-08-26T14:21:21.225Z,93210.70
2022-08-26T14:26:30.007Z,93218.86
2022-08-26T14:31:38.581Z,93222.39
2022-08-26T14:36:46.077Z,93217.64
2022-08-26T14:41:57.802Z,93217.91
2022-08-26T14:47:07.073Z,93211.48
2022-08-26T14:52:14.026Z,93203.08
2022-08-26T14:57:22.616Z,93204.25
2022-08-26T15:02:33.488Z,93194.27
2022-08-26T15:07:41.724Z,93195.30
2022-08-26T15:12:54.224Z,93190.25
2022-08-26T15:18:06.361Z,93182.59
2022-08-26T15:23:14.235Z,93179.50
2022-08-26T15:28:23.402Z,93167.08
2022-08-26T15:33:30.605Z,93174.08
2022-08-26T15:38:47.923Z,93170.94
2022-08-26T15:43:55.986Z,93159.80
2022-08-26T15:49:02.815Z,93160.94
2022-08-26T15:54:10.580Z,93158.38
2022-08-26T15:59:19.319Z,93152.62
2022-08-26T16:04:27.316Z,93160.03
2022-08-26T16:09:34.616Z,93158.20
2022-08-26T16:14:43.095Z,93172.05
2022-08-26T16:19:50.094Z,93165.72
2022-08-26T16:25:01.295Z,93176.06
2022-08-26T16:30:10.627Z,93175.12
2022-08-26T16:35:18.355Z,93166.56
2022-08-26T16:40:26.666Z,93165.75
2022-08-26T16:45:37.094Z,93167.83
2022-08-26T16:50:44.956Z,93167.08
2022-08-26T16:55:52.995Z,93169.89
2022-08-26T17:01:04.898Z,93168.94
2022-08-26T17:06:13.765Z,93167.54
2022-08-26T17:11:20.615Z,93164.81
2022-08-26T17:16:27.683Z,93167.00
2022-08-26T17:21:36.895Z,93170.13
2022-08-26T17:26:48.373Z,93173.66
2022-08-26T17:31:53.806Z,93170.86
2022-08-26T17:37:01.234Z,93177.31
2022-08-26T17:42:08.465Z,93176.11
2022-08-26T17:47:15.420Z,93175.86
2022-08-26T17:52:24.889Z,93178.20
2022-08-26T17:57:32.195Z,93180.73
2022-08-26T18:02:41.345Z,93181.23
2022-08-26T18:07:53.086Z,93193.14
2022-08-26T18:13:00.266Z,93195.63
2022-08-26T18:18:08.749Z,93201.25
2022-08-26T18:23:16.786Z,93195.59
2022-08-26T18:28:24.015Z,93194.19
2022-08-26T18:33:32.136Z,93195.96
2022-08-26T18:38:39.635Z,93208.32
2022-08-26T18:43:49.014Z,93219.34
2022-08-26T18:48:58.268Z,93212.10
2022-08-26T18:54:08.015Z,93222.87
2022-08-26T18:59:18.301Z,93218.47
2022-08-26T19:04:26.667Z,93223.66
2022-08-26T19:09:34.915Z,93230.61
2022-08-26T19:14:43.135Z,93232.68
2022-08-26T19:19:50.274Z,93228.17
2022-08-26T19:24:58.866Z,93232.34
2022-08-26T19:30:08.410Z,93230.56
2022-08-26T19:35:15.815Z,93244.95
2022-08-26T19:40:23.002Z,93247.34
2022-08-26T19:45:32.667Z,93251.17
2022-08-26T19:50:39.945Z,93251.94
2022-08-26T19:55:52.722Z,93249.76
2022-08-26T20:01:03.816Z,93250.36
2022-08-26T20:06:14.276Z,93249.11
2022-08-26T20:11:22.783Z,93247.63
2022-08-26T20:16:31.527Z,93240.52
2022-08-26T20:21:42.565Z,93243.72
2022-08-26T20:26:50.263Z,93245.88
2022-08-26T20:31:59.052Z,93241.88
2022-08-26T20:37:09.331Z,93244.94
2022-08-26T20:42:19.822Z,93247.37
2022-08-26T20:47:38.816Z,93244.64
2022-08-26T20:52:46.871Z,93237.56
2022-08-26T20:57:54.246Z,93235.97
2022-08-26T21:03:01.756Z,93228.11
2022-08-26T21:08:09.674Z,93235.50
2022-08-26T21:13:20.415Z,93232.75
2022-08-26T21:18:28.915Z,93229.85
2022-08-26T21:23:37.145Z,93239.52
2022-08-26T21:28:46.754Z,93235.56
2022-08-26T21:33:54.689Z,93241.34
2022-08-26T21:39:02.765Z,93241.52
2022-08-26T21:44:11.035Z,93237.66
2022-08-26T21:49:19.515Z,93244.05
2022-08-26T21:54:27.023Z,93235.39
2022-08-26T21:59:34.395Z,93231.79
2022-08-26T22:04:44.593Z,93228.91
2022-08-26T22:09:51.367Z,93232.99
2022-08-26T22:14:59.086Z,93231.34
2022-08-26T22:20:08.182Z,93230.48
2022-08-26T22:25:17.995Z,93232.44
2022-08-26T22:30:25.911Z,93231.38
2022-08-26T22:35:34.225Z,93233.08
2022-08-26T22:40:49.500Z,93225.98
2022-08-26T22:45:59.022Z,93222.03
2022-08-26T22:51:07.006Z,93214.73
2022-08-26T22:56:15.722Z,93217.25
2022-08-26T23:01:23.288Z,93224.48
2022-08-26T23:06:30.435Z,93224.30
2022-08-26T23:11:39.305Z,93231.41
2022-08-26T23:16:53.029Z,93220.95
2022-08-26T23:22:00.140Z,93221.02
2022-08-26T23:27:07.785Z,93217.56
2022-08-26T23:32:14.615Z,93214.46
2022-08-26T23:37:27.435Z,93209.64
2022-08-26T23:42:35.616Z,93208.20
2022-08-26T23:47:43.485Z,93205.16
2022-08-26T23:53:07.137Z,93198.77
2022-08-26T23:58:14.755Z,93197.20
